sensor_id;sensor_type;location;lat;lon;timestamp;P1;durP1;ratioP1;P2;durP2;ratioP2
69253;SDS011;56364;41.816;12.448;2023-10-08T00:02:16;18.27;;;8.80;;
69253;SDS011;56364;41.816;12.448;2023-10-08T00:04:47;18.50;;;8.43;;
69253;SDS011;56364;41.816;12.448;2023-10-08T00:07:15;20.83;;;8.27;;
69253;SDS011;56364;41.816;12.448;2023-10-08T00:09:46;25.05;;;9.05;;
69253;SDS011;56364;41.816;12.448;2023-10-08T00:14:38;19.50;;;8.20;;
69253;SDS011;56364;41.816;12.448;2023-10-08T00:17:10;23.67;;;8.43;;
69253;SDS011;56364;41.816;12.448;2023-10-08T00:19:36;18.15;;;8.52;;
69253;SDS011;56364;41.816;12.448;2023-10-08T00:22:03;22.17;;;9.75;;
69253;SDS011;56364;41.816;12.448;2023-10-08T00:24:32;20.17;;;9.40;;
69253;SDS011;56364;41.816;12.448;2023-10-08T00:26:59;19.38;;;8.88;;
69253;SDS011;56364;41.816;12.448;2023-10-08T00:29:25;25.38;;;9.15;;
69253;SDS011;56364;41.816;12.448;2023-10-08T00:31:52;22.30;;;8.88;;
69253;SDS011;56364;41.816;12.448;2023-10-08T00:34:22;22.50;;;8.68;;
69253;SDS011;56364;41.816;12.448;2023-10-08T00:36:50;22.33;;;8.35;;
69253;SDS011;56364;41.816;12.448;2023-10-08T00:39:16;17.25;;;8.13;;
69253;SDS011;56364;41.816;12.448;2023-10-08T00:41:59;20.17;;;7.90;;
69253;SDS011;56364;41.816;12.448;2023-10-08T00:44:26;19.13;;;7.72;;
69253;SDS011;56364;41.816;12.448;2023-10-08T00:46:58;16.63;;;8.15;;
69253;SDS011;56364;41.816;12.448;2023-10-08T00:49:32;18.00;;;8.10;;
69253;SDS011;56364;41.816;12.448;2023-10-08T00:52:12;14.77;;;7.53;;
69253;SDS011;56364;41.816;12.448;2023-10-08T00:54:40;20.15;;;8.30;;
69253;SDS011;56364;41.816;12.448;2023-10-08T00:57:32;18.15;;;7.93;;
69253;SDS011;56364;41.816;12.448;2023-10-08T01:00:07;17.98;;;8.02;;
69253;SDS011;56364;41.816;12.448;2023-10-08T01:02:42;18.55;;;8.13;;
69253;SDS011;56364;41.816;12.448;2023-10-08T01:05:14;24.08;;;8.43;;
69253;SDS011;56364;41.816;12.448;2023-10-08T01:07:43;20.27;;;8.45;;
69253;SDS011;56364;41.816;12.448;2023-10-08T01:10:10;18.50;;;8.60;;
69253;SDS011;56364;41.816;12.448;2023-10-08T01:12:38;16.05;;;7.63;;
69253;SDS011;56364;41.816;12.448;2023-10-08T01:15:19;21.85;;;8.10;;
69253;SDS011;56364;41.816;12.448;2023-10-08T01:17:49;19.55;;;7.78;;
69253;SDS011;56364;41.816;12.448;2023-10-08T01:20:28;19.65;;;8.70;;
69253;SDS011;56364;41.816;12.448;2023-10-08T01:38:48;20.60;;;8.73;;
69253;SDS011;56364;41.816;12.448;2023-10-08T01:44:05;21.13;;;8.80;;
69253;SDS011;56364;41.816;12.448;2023-10-08T01:46:33;23.15;;;8.77;;
69253;SDS011;56364;41.816;12.448;2023-10-08T01:49:00;21.92;;;8.45;;
69253;SDS011;56364;41.816;12.448;2023-10-08T01:51:38;20.88;;;9.05;;
69253;SDS011;56364;41.816;12.448;2023-10-08T01:54:11;26.60;;;9.23;;
69253;SDS011;56364;41.816;12.448;2023-10-08T01:56:39;17.92;;;8.70;;
69253;SDS011;56364;41.816;12.448;2023-10-08T01:59:07;19.77;;;8.20;;
69253;SDS011;56364;41.816;12.448;2023-10-08T02:01:33;22.10;;;8.88;;
69253;SDS011;56364;41.816;12.448;2023-10-08T02:04:00;23.23;;;9.13;;
69253;SDS011;56364;41.816;12.448;2023-10-08T02:06:26;19.55;;;8.38;;
69253;SDS011;56364;41.816;12.448;2023-10-08T02:11:18;23.60;;;9.52;;
69253;SDS011;56364;41.816;12.448;2023-10-08T02:13:45;22.25;;;8.85;;
69253;SDS011;56364;41.816;12.448;2023-10-08T02:16:15;18.17;;;8.73;;
69253;SDS011;56364;41.816;12.448;2023-10-08T02:18:43;23.63;;;9.50;;
69253;SDS011;56364;41.816;12.448;2023-10-08T02:23:38;21.52;;;8.15;;
69253;SDS011;56364;41.816;12.448;2023-10-08T02:28:30;21.20;;;8.77;;
69253;SDS011;56364;41.816;12.448;2023-10-08T02:30:58;21.27;;;8.60;;
69253;SDS011;56364;41.816;12.448;2023-10-08T02:33:26;18.13;;;8.38;;
69253;SDS011;56364;41.816;12.448;2023-10-08T02:35:52;17.98;;;8.43;;
69253;SDS011;56364;41.816;12.448;2023-10-08T02:38:18;19.20;;;8.35;;
69253;SDS011;56364;41.816;12.448;2023-10-08T02:40:46;20.42;;;8.02;;
69253;SDS011;56364;41.816;12.448;2023-10-08T02:43:13;15.18;;;7.68;;
69253;SDS011;56364;41.816;12.448;2023-10-08T02:45:40;18.83;;;7.90;;
69253;SDS011;56364;41.816;12.448;2023-10-08T02:48:09;14.07;;;6.72;;
69253;SDS011;56364;41.816;12.448;2023-10-08T02:50:39;21.77;;;8.00;;
69253;SDS011;56364;41.816;12.448;2023-10-08T02:53:10;20.05;;;7.47;;
69253;SDS011;56364;41.816;12.448;2023-10-08T02:55:37;16.75;;;7.05;;
69253;SDS011;56364;41.816;12.448;2023-10-08T02:58:07;17.27;;;7.43;;
69253;SDS011;56364;41.816;12.448;2023-10-08T03:00:40;18.65;;;7.15;;
69253;SDS011;56364;41.816;12.448;2023-10-08T03:05:46;18.63;;;6.78;;
69253;SDS011;56364;41.816;12.448;2023-10-08T03:08:13;17.98;;;7.05;;
69253;SDS011;56364;41.816;12.448;2023-10-08T03:10:44;17.67;;;6.85;;
69253;SDS011;56364;41.816;12.448;2023-10-08T03:13:10;16.80;;;7.07;;
69253;SDS011;56364;41.816;12.448;2023-10-08T03:15:38;17.17;;;6.78;;
69253;SDS011;56364;41.816;12.448;2023-10-08T03:18:26;15.73;;;6.97;;
69253;SDS011;56364;41.816;12.448;2023-10-08T03:21:04;17.45;;;6.75;;
69253;SDS011;56364;41.816;12.448;2023-10-08T03:23:31;17.05;;;6.80;;
69253;SDS011;56364;41.816;12.448;2023-10-08T03:26:02;17.13;;;7.10;;
69253;SDS011;56364;41.816;12.448;2023-10-08T03:28:53;15.85;;;6.57;;
69253;SDS011;56364;41.816;12.448;2023-10-08T03:31:23;15.50;;;6.93;;
69253;SDS011;56364;41.816;12.448;2023-10-08T03:34:10;16.17;;;6.55;;
69253;SDS011;56364;41.816;12.448;2023-10-08T03:36:43;15.25;;;6.50;;
69253;SDS011;56364;41.816;12.448;2023-10-08T03:39:10;15.45;;;6.72;;
69253;SDS011;56364;41.816;12.448;2023-10-08T03:41:42;14.23;;;6.63;;
69253;SDS011;56364;41.816;12.448;2023-10-08T03:44:23;19.73;;;6.82;;
69253;SDS011;56364;41.816;12.448;2023-10-08T03:46:49;13.55;;;6.20;;
69253;SDS011;56364;41.816;12.448;2023-10-08T03:49:17;18.77;;;6.63;;
69253;SDS011;56364;41.816;12.448;2023-10-08T03:51:43;12.75;;;6.32;;
69253;SDS011;56364;41.816;12.448;2023-10-08T03:56:43;16.02;;;6.40;;
69253;SDS011;56364;41.816;12.448;2023-10-08T03:59:14;16.58;;;6.78;;
69253;SDS011;56364;41.816;12.448;2023-10-08T04:02:02;19.00;;;7.18;;
69253;SDS011;56364;41.816;12.448;2023-10-08T04:05:01;15.45;;;6.40;;
69253;SDS011;56364;41.816;12.448;2023-10-08T04:07:43;18.10;;;6.70;;
69253;SDS011;56364;41.816;12.448;2023-10-08T04:10:24;17.95;;;7.47;;
69253;SDS011;56364;41.816;12.448;2023-10-08T04:13:02;18.35;;;7.40;;
69253;SDS011;56364;41.816;12.448;2023-10-08T04:15:31;25.55;;;9.00;;
69253;SDS011;56364;41.816;12.448;2023-10-08T04:17:57;18.40;;;7.47;;
69253;SDS011;56364;41.816;12.448;2023-10-08T04:20:27;20.10;;;7.90;;
69253;SDS011;56364;41.816;12.448;2023-10-08T04:23:19;19.48;;;7.43;;
69253;SDS011;56364;41.816;12.448;2023-10-08T04:25:46;21.00;;;7.97;;
69253;SDS011;56364;41.816;12.448;2023-10-08T04:28:19;19.98;;;7.43;;
69253;SDS011;56364;41.816;12.448;2023-10-08T04:30:46;20.23;;;7.68;;
69253;SDS011;56364;41.816;12.448;2023-10-08T04:35:44;16.33;;;7.10;;
69253;SDS011;56364;41.816;12.448;2023-10-08T04:38:16;16.13;;;7.03;;
69253;SDS011;56364;41.816;12.448;2023-10-08T04:40:44;16.65;;;6.80;;
69253;SDS011;56364;41.816;12.448;2023-10-08T04:43:25;17.25;;;7.55;;
69253;SDS011;56364;41.816;12.448;2023-10-08T04:45:53;19.83;;;7.10;;
69253;SDS011;56364;41.816;12.448;2023-10-08T04:48:21;14.60;;;6.63;;
69253;SDS011;56364;41.816;12.448;2023-10-08T04:50:52;17.65;;;7.40;;
69253;SDS011;56364;41.816;12.448;2023-10-08T04:53:28;15.25;;;6.72;;
69253;SDS011;56364;41.816;12.448;2023-10-08T04:56:04;17.27;;;7.18;;
69253;SDS011;56364;41.816;12.448;2023-10-08T04:58:34;16.98;;;7.20;;
69253;SDS011;56364;41.816;12.448;2023-10-08T05:01:05;16.95;;;7.60;;
69253;SDS011;56364;41.816;12.448;2023-10-08T05:03:53;23.75;;;6.90;;
69253;SDS011;56364;41.816;12.448;2023-10-08T05:06:26;22.33;;;7.40;;
69253;SDS011;56364;41.816;12.448;2023-10-08T05:11:51;14.68;;;7.07;;
69253;SDS011;56364;41.816;12.448;2023-10-08T05:14:17;17.63;;;7.28;;
69253;SDS011;56364;41.816;12.448;2023-10-08T05:17:03;16.50;;;6.93;;
69253;SDS011;56364;41.816;12.448;2023-10-08T05:19:34;16.92;;;6.30;;
69253;SDS011;56364;41.816;12.448;2023-10-08T05:24:45;20.40;;;6.75;;
69253;SDS011;56364;41.816;12.448;2023-10-08T05:27:34;18.90;;;7.35;;
69253;SDS011;56364;41.816;12.448;2023-10-08T05:30:16;16.05;;;6.53;;
69253;SDS011;56364;41.816;12.448;2023-10-08T05:33:03;20.52;;;7.50;;
69253;SDS011;56364;41.816;12.448;2023-10-08T05:35:59;15.27;;;6.32;;
69253;SDS011;56364;41.816;12.448;2023-10-08T05:41:05;20.45;;;6.82;;
69253;SDS011;56364;41.816;12.448;2023-10-08T05:43:51;14.13;;;6.85;;
69253;SDS011;56364;41.816;12.448;2023-10-08T05:46:37;15.82;;;6.85;;
69253;SDS011;56364;41.816;12.448;2023-10-08T05:49:22;14.75;;;6.18;;
69253;SDS011;56364;41.816;12.448;2023-10-08T05:52:03;21.88;;;7.50;;
69253;SDS011;56364;41.816;12.448;2023-10-08T05:54:29;19.02;;;7.10;;
69253;SDS011;56364;41.816;12.448;2023-10-08T05:56:55;16.98;;;6.47;;
69253;SDS011;56364;41.816;12.448;2023-10-08T05:59:40;16.80;;;7.07;;
69253;SDS011;56364;41.816;12.448;2023-10-08T06:02:28;20.75;;;6.32;;
69253;SDS011;56364;41.816;12.448;2023-10-08T06:05:04;18.48;;;6.85;;
69253;SDS011;56364;41.816;12.448;2023-10-08T06:12:56;14.57;;;6.53;;
69253;SDS011;56364;41.816;12.448;2023-10-08T06:15:28;18.60;;;6.88;;
69253;SDS011;56364;41.816;12.448;2023-10-08T06:18:17;15.88;;;6.93;;
69253;SDS011;56364;41.816;12.448;2023-10-08T06:20:44;19.48;;;7.40;;
69253;SDS011;56364;41.816;12.448;2023-10-08T06:23:14;16.73;;;6.30;;
69253;SDS011;56364;41.816;12.448;2023-10-08T06:25:47;20.52;;;6.85;;
69253;SDS011;56364;41.816;12.448;2023-10-08T06:46:30;15.05;;;6.25;;
69253;SDS011;56364;41.816;12.448;2023-10-08T06:49:10;16.92;;;6.88;;
69253;SDS011;56364;41.816;12.448;2023-10-08T07:17:23;14.20;;;5.45;;
69253;SDS011;56364;41.816;12.448;2023-10-08T07:27:56;14.23;;;5.50;;
69253;SDS011;56364;41.816;12.448;2023-10-08T07:30:22;18.67;;;6.88;;
69253;SDS011;56364;41.816;12.448;2023-10-08T07:32:53;15.20;;;6.18;;
69253;SDS011;56364;41.816;12.448;2023-10-08T07:35:19;16.25;;;6.45;;
69253;SDS011;56364;41.816;12.448;2023-10-08T07:37:46;15.40;;;7.10;;
69253;SDS011;56364;41.816;12.448;2023-10-08T07:40:12;14.63;;;5.63;;
69253;SDS011;56364;41.816;12.448;2023-10-08T07:42:39;17.90;;;6.15;;
69253;SDS011;56364;41.816;12.448;2023-10-08T07:45:05;16.15;;;6.55;;
69253;SDS011;56364;41.816;12.448;2023-10-08T07:47:32;14.68;;;5.85;;
69253;SDS011;56364;41.816;12.448;2023-10-08T07:49:59;15.50;;;5.80;;
69253;SDS011;56364;41.816;12.448;2023-10-08T07:52:25;17.67;;;5.78;;
69253;SDS011;56364;41.816;12.448;2023-10-08T07:54:51;14.32;;;5.55;;
69253;SDS011;56364;41.816;12.448;2023-10-08T07:57:18;15.80;;;5.82;;
69253;SDS011;56364;41.816;12.448;2023-10-08T08:02:19;17.25;;;5.97;;
69253;SDS011;56364;41.816;12.448;2023-10-08T08:04:50;14.55;;;6.32;;
69253;SDS011;56364;41.816;12.448;2023-10-08T08:07:18;18.77;;;7.60;;
69253;SDS011;56364;41.816;12.448;2023-10-08T08:09:44;18.85;;;8.80;;
69253;SDS011;56364;41.816;12.448;2023-10-08T08:12:17;19.50;;;7.53;;
69253;SDS011;56364;41.816;12.448;2023-10-08T08:14:44;15.32;;;6.72;;
69253;SDS011;56364;41.816;12.448;2023-10-08T08:17:10;12.32;;;5.00;;
69253;SDS011;56364;41.816;12.448;2023-10-08T08:19:40;11.20;;;4.85;;
69253;SDS011;56364;41.816;12.448;2023-10-08T08:22:06;12.07;;;5.63;;
69253;SDS011;56364;41.816;12.448;2023-10-08T08:24:32;15.07;;;5.28;;
69253;SDS011;56364;41.816;12.448;2023-10-08T08:27:02;15.95;;;5.50;;
69253;SDS011;56364;41.816;12.448;2023-10-08T08:29:37;12.63;;;5.80;;
69253;SDS011;56364;41.816;12.448;2023-10-08T08:32:09;17.35;;;6.00;;
69253;SDS011;56364;41.816;12.448;2023-10-08T08:34:40;12.77;;;5.50;;
69253;SDS011;56364;41.816;12.448;2023-10-08T08:37:09;11.45;;;5.20;;
69253;SDS011;56364;41.816;12.448;2023-10-08T08:39:35;16.58;;;5.47;;
69253;SDS011;56364;41.816;12.448;2023-10-08T08:42:02;13.93;;;6.13;;
69253;SDS011;56364;41.816;12.448;2023-10-08T08:44:33;15.30;;;4.78;;
69253;SDS011;56364;41.816;12.448;2023-10-08T08:47:04;17.08;;;5.53;;
69253;SDS011;56364;41.816;12.448;2023-10-08T08:49:35;12.70;;;5.20;;
69253;SDS011;56364;41.816;12.448;2023-10-08T08:52:02;10.60;;;5.13;;
69253;SDS011;56364;41.816;12.448;2023-10-08T08:54:29;13.02;;;4.85;;
69253;SDS011;56364;41.816;12.448;2023-10-08T08:56:59;11.18;;;5.57;;
69253;SDS011;56364;41.816;12.448;2023-10-08T08:59:27;12.98;;;5.13;;
69253;SDS011;56364;41.816;12.448;2023-10-08T09:01:56;9.52;;;4.85;;
69253;SDS011;56364;41.816;12.448;2023-10-08T09:04:29;12.10;;;5.00;;
69253;SDS011;56364;41.816;12.448;2023-10-08T09:06:55;13.55;;;5.88;;
69253;SDS011;56364;41.816;12.448;2023-10-08T09:09:22;13.07;;;5.15;;
69253;SDS011;56364;41.816;12.448;2023-10-08T09:11:49;14.25;;;5.75;;
69253;SDS011;56364;41.816;12.448;2023-10-08T09:14:20;12.50;;;5.05;;
69253;SDS011;56364;41.816;12.448;2023-10-08T09:16:47;12.85;;;5.18;;
69253;SDS011;56364;41.816;12.448;2023-10-08T09:19:13;11.35;;;5.47;;
69253;SDS011;56364;41.816;12.448;2023-10-08T09:24:32;18.30;;;6.53;;
69253;SDS011;56364;41.816;12.448;2023-10-08T09:26:59;13.40;;;5.38;;
69253;SDS011;56364;41.816;12.448;2023-10-08T09:29:29;11.77;;;5.28;;
69253;SDS011;56364;41.816;12.448;2023-10-08T09:31:56;15.07;;;5.40;;
69253;SDS011;56364;41.816;12.448;2023-10-08T09:34:26;10.73;;;4.25;;
69253;SDS011;56364;41.816;12.448;2023-10-08T09:36:53;16.17;;;4.97;;
69253;SDS011;56364;41.816;12.448;2023-10-08T09:39:21;13.43;;;4.70;;
69253;SDS011;56364;41.816;12.448;2023-10-08T09:41:55;13.63;;;4.63;;
69253;SDS011;56364;41.816;12.448;2023-10-08T09:44:21;11.10;;;5.05;;
69253;SDS011;56364;41.816;12.448;2023-10-08T09:47:02;14.13;;;5.70;;
69253;SDS011;56364;41.816;12.448;2023-10-08T09:49:30;14.95;;;5.32;;
69253;SDS011;56364;41.816;12.448;2023-10-08T09:52:01;10.65;;;4.55;;
69253;SDS011;56364;41.816;12.448;2023-10-08T09:54:31;12.07;;;5.25;;
69253;SDS011;56364;41.816;12.448;2023-10-08T09:56:59;13.60;;;5.43;;
69253;SDS011;56364;41.816;12.448;2023-10-08T09:59:29;12.55;;;5.30;;
69253;SDS011;56364;41.816;12.448;2023-10-08T10:01:55;11.00;;;5.43;;
69253;SDS011;56364;41.816;12.448;2023-10-08T10:04:24;13.63;;;5.07;;
69253;SDS011;56364;41.816;12.448;2023-10-08T10:06:53;12.73;;;5.40;;
69253;SDS011;56364;41.816;12.448;2023-10-08T10:09:22;20.10;;;5.78;;
69253;SDS011;56364;41.816;12.448;2023-10-08T10:11:49;12.02;;;5.05;;
69253;SDS011;56364;41.816;12.448;2023-10-08T10:14:15;15.40;;;5.68;;
69253;SDS011;56364;41.816;12.448;2023-10-08T10:24:28;11.82;;;4.40;;
69253;SDS011;56364;41.816;12.448;2023-10-08T10:27:12;13.50;;;4.90;;
69253;SDS011;56364;41.816;12.448;2023-10-08T10:29:40;12.30;;;5.10;;
69253;SDS011;56364;41.816;12.448;2023-10-08T10:32:09;14.60;;;5.40;;
69253;SDS011;56364;41.816;12.448;2023-10-08T10:34:38;15.85;;;5.95;;
69253;SDS011;56364;41.816;12.448;2023-10-08T10:37:04;10.80;;;5.03;;
69253;SDS011;56364;41.816;12.448;2023-10-08T10:39:52;9.80;;;4.47;;
69253;SDS011;56364;41.816;12.448;2023-10-08T10:42:20;13.35;;;4.32;;
69253;SDS011;56364;41.816;12.448;2023-10-08T10:44:47;13.75;;;5.40;;
69253;SDS011;56364;41.816;12.448;2023-10-08T10:47:18;15.00;;;6.07;;
69253;SDS011;56364;41.816;12.448;2023-10-08T10:49:50;12.05;;;5.00;;
69253;SDS011;56364;41.816;12.448;2023-10-08T10:52:17;11.45;;;4.43;;
69253;SDS011;56364;41.816;12.448;2023-10-08T10:54:56;14.25;;;4.95;;
69253;SDS011;56364;41.816;12.448;2023-10-08T10:57:31;12.38;;;5.13;;
69253;SDS011;56364;41.816;12.448;2023-10-08T11:00:01;11.73;;;4.43;;
69253;SDS011;56364;41.816;12.448;2023-10-08T11:02:43;12.45;;;5.28;;
69253;SDS011;56364;41.816;12.448;2023-10-08T11:05:14;9.82;;;4.55;;
69253;SDS011;56364;41.816;12.448;2023-10-08T11:07:44;10.25;;;5.28;;
69253;SDS011;56364;41.816;12.448;2023-10-08T11:10:10;8.80;;;4.80;;
69253;SDS011;56364;41.816;12.448;2023-10-08T11:12:40;9.10;;;4.80;;
69253;SDS011;56364;41.816;12.448;2023-10-08T11:15:13;13.18;;;5.05;;
69253;SDS011;56364;41.816;12.448;2023-10-08T11:17:40;9.80;;;5.07;;
69253;SDS011;56364;41.816;12.448;2023-10-08T11:20:26;12.15;;;5.50;;
69253;SDS011;56364;41.816;12.448;2023-10-08T11:22:53;12.77;;;5.80;;
69253;SDS011;56364;41.816;12.448;2023-10-08T11:25:23;9.25;;;4.95;;
69253;SDS011;56364;41.816;12.448;2023-10-08T11:27:55;10.95;;;5.35;;
69253;SDS011;56364;41.816;12.448;2023-10-08T11:30:27;12.63;;;5.78;;
69253;SDS011;56364;41.816;12.448;2023-10-08T11:33:00;9.40;;;5.20;;
69253;SDS011;56364;41.816;12.448;2023-10-08T11:35:26;12.88;;;5.65;;
69253;SDS011;56364;41.816;12.448;2023-10-08T11:37:57;14.55;;;5.47;;
69253;SDS011;56364;41.816;12.448;2023-10-08T11:42:59;14.00;;;5.65;;
69253;SDS011;56364;41.816;12.448;2023-10-08T11:45:28;12.68;;;5.57;;
69253;SDS011;56364;41.816;12.448;2023-10-08T11:48:06;12.10;;;5.60;;
69253;SDS011;56364;41.816;12.448;2023-10-08T11:50:37;13.80;;;6.32;;
69253;SDS011;56364;41.816;12.448;2023-10-08T11:53:03;14.88;;;5.65;;
69253;SDS011;56364;41.816;12.448;2023-10-08T11:55:33;11.48;;;6.13;;
69253;SDS011;56364;41.816;12.448;2023-10-08T11:58:01;9.60;;;5.60;;
69253;SDS011;56364;41.816;12.448;2023-10-08T12:00:49;15.65;;;5.80;;
69253;SDS011;56364;41.816;12.448;2023-10-08T12:03:17;13.52;;;5.93;;
69253;SDS011;56364;41.816;12.448;2023-10-08T12:05:47;9.93;;;5.18;;
69253;SDS011;56364;41.816;12.448;2023-10-08T12:08:17;12.32;;;5.45;;
69253;SDS011;56364;41.816;12.448;2023-10-08T12:10:45;10.93;;;5.80;;
69253;SDS011;56364;41.816;12.448;2023-10-08T12:13:13;11.27;;;6.05;;
69253;SDS011;56364;41.816;12.448;2023-10-08T12:20:52;11.98;;;5.90;;
69253;SDS011;56364;41.816;12.448;2023-10-08T12:25:49;13.35;;;5.78;;
69253;SDS011;56364;41.816;12.448;2023-10-08T12:28:22;11.93;;;5.65;;
69253;SDS011;56364;41.816;12.448;2023-10-08T12:36:35;16.63;;;5.20;;
69253;SDS011;56364;41.816;12.448;2023-10-08T12:39:13;10.55;;;4.20;;
69253;SDS011;56364;41.816;12.448;2023-10-08T12:41:43;13.02;;;5.22;;
69253;SDS011;56364;41.816;12.448;2023-10-08T12:44:09;12.48;;;5.65;;
69253;SDS011;56364;41.816;12.448;2023-10-08T12:46:35;12.18;;;5.18;;
69253;SDS011;56364;41.816;12.448;2023-10-08T12:49:02;16.67;;;5.75;;
69253;SDS011;56364;41.816;12.448;2023-10-08T12:51:28;9.68;;;5.53;;
69253;SDS011;56364;41.816;12.448;2023-10-08T12:54:06;11.55;;;5.70;;
69253;SDS011;56364;41.816;12.448;2023-10-08T12:56:33;13.45;;;5.78;;
69253;SDS011;56364;41.816;12.448;2023-10-08T12:59:14;10.70;;;5.90;;
69253;SDS011;56364;41.816;12.448;2023-10-08T13:01:46;14.50;;;6.15;;
69253;SDS011;56364;41.816;12.448;2023-10-08T13:04:17;13.65;;;5.90;;
69253;SDS011;56364;41.816;12.448;2023-10-08T13:06:50;13.43;;;5.45;;
69253;SDS011;56364;41.816;12.448;2023-10-08T13:09:17;10.82;;;5.78;;
69253;SDS011;56364;41.816;12.448;2023-10-08T13:11:43;13.98;;;5.80;;
69253;SDS011;56364;41.816;12.448;2023-10-08T13:14:10;9.65;;;5.85;;
69253;SDS011;56364;41.816;12.448;2023-10-08T13:16:36;14.50;;;5.78;;
69253;SDS011;56364;41.816;12.448;2023-10-08T13:19:03;10.38;;;5.13;;
69253;SDS011;56364;41.816;12.448;2023-10-08T13:21:29;12.05;;;5.93;;
69253;SDS011;56364;41.816;12.448;2023-10-08T13:26:52;11.60;;;5.18;;
69253;SDS011;56364;41.816;12.448;2023-10-08T13:29:58;10.35;;;5.55;;
69253;SDS011;56364;41.816;12.448;2023-10-08T13:40:53;9.30;;;5.15;;
69253;SDS011;56364;41.816;12.448;2023-10-08T13:43:34;12.63;;;5.18;;
69253;SDS011;56364;41.816;12.448;2023-10-08T13:46:04;6.68;;;4.25;;
69253;SDS011;56364;41.816;12.448;2023-10-08T13:48:31;11.07;;;4.97;;
69253;SDS011;56364;41.816;12.448;2023-10-08T13:51:01;10.13;;;5.45;;
69253;SDS011;56364;41.816;12.448;2023-10-08T13:53:29;10.20;;;5.05;;
69253;SDS011;56364;41.816;12.448;2023-10-08T13:55:58;9.90;;;5.20;;
69253;SDS011;56364;41.816;12.448;2023-10-08T13:58:26;16.38;;;5.38;;
69253;SDS011;56364;41.816;12.448;2023-10-08T14:00:53;11.23;;;5.10;;
69253;SDS011;56364;41.816;12.448;2023-10-08T14:03:19;12.15;;;6.07;;
69253;SDS011;56364;41.816;12.448;2023-10-08T14:05:47;13.30;;;5.70;;
69253;SDS011;56364;41.816;12.448;2023-10-08T14:08:16;9.88;;;5.75;;
69253;SDS011;56364;41.816;12.448;2023-10-08T14:10:43;8.95;;;5.45;;
69253;SDS011;56364;41.816;12.448;2023-10-08T14:13:09;8.68;;;5.20;;
69253;SDS011;56364;41.816;12.448;2023-10-08T14:15:35;9.55;;;5.47;;
69253;SDS011;56364;41.816;12.448;2023-10-08T14:18:09;11.68;;;5.13;;
69253;SDS011;56364;41.816;12.448;2023-10-08T14:20:36;9.23;;;5.30;;
69253;SDS011;56364;41.816;12.448;2023-10-08T14:23:05;8.52;;;4.55;;
69253;SDS011;56364;41.816;12.448;2023-10-08T14:25:37;11.10;;;5.07;;
69253;SDS011;56364;41.816;12.448;2023-10-08T14:28:10;11.50;;;4.90;;
69253;SDS011;56364;41.816;12.448;2023-10-08T14:30:47;11.07;;;5.40;;
69253;SDS011;56364;41.816;12.448;2023-10-08T14:33:18;9.85;;;4.50;;
69253;SDS011;56364;41.816;12.448;2023-10-08T14:35:49;9.05;;;5.40;;
69253;SDS011;56364;41.816;12.448;2023-10-08T14:38:34;9.80;;;4.53;;
69253;SDS011;56364;41.816;12.448;2023-10-08T14:41:19;9.80;;;4.30;;
69253;SDS011;56364;41.816;12.448;2023-10-08T14:44:03;10.68;;;5.35;;
69253;SDS011;56364;41.816;12.448;2023-10-08T14:46:31;9.50;;;5.53;;
69253;SDS011;56364;41.816;12.448;2023-10-08T14:48:59;9.45;;;5.47;;
69253;SDS011;56364;41.816;12.448;2023-10-08T14:51:27;9.35;;;4.95;;
69253;SDS011;56364;41.816;12.448;2023-10-08T14:54:15;9.35;;;5.22;;
69253;SDS011;56364;41.816;12.448;2023-10-08T14:56:42;7.85;;;4.32;;
69253;SDS011;56364;41.816;12.448;2023-10-08T14:59:08;10.05;;;6.25;;
69253;SDS011;56364;41.816;12.448;2023-10-08T15:01:34;9.07;;;5.13;;
69253;SDS011;56364;41.816;12.448;2023-10-08T15:04:00;8.88;;;5.05;;
69253;SDS011;56364;41.816;12.448;2023-10-08T15:06:32;12.60;;;5.43;;
69253;SDS011;56364;41.816;12.448;2023-10-08T15:08:59;13.32;;;5.00;;
69253;SDS011;56364;41.816;12.448;2023-10-08T15:11:26;11.88;;;5.95;;
69253;SDS011;56364;41.816;12.448;2023-10-08T15:16:31;11.38;;;5.20;;
69253;SDS011;56364;41.816;12.448;2023-10-08T15:18:57;9.73;;;4.72;;
69253;SDS011;56364;41.816;12.448;2023-10-08T15:21:23;10.63;;;4.28;;
69253;SDS011;56364;41.816;12.448;2023-10-08T15:26:32;9.73;;;5.10;;
69253;SDS011;56364;41.816;12.448;2023-10-08T15:29:04;10.07;;;5.40;;
69253;SDS011;56364;41.816;12.448;2023-10-08T15:31:33;13.27;;;5.03;;
69253;SDS011;56364;41.816;12.448;2023-10-08T15:33:59;13.93;;;5.38;;
69253;SDS011;56364;41.816;12.448;2023-10-08T15:41:40;10.50;;;5.25;;
69253;SDS011;56364;41.816;12.448;2023-10-08T15:44:08;14.45;;;6.13;;
69253;SDS011;56364;41.816;12.448;2023-10-08T15:46:34;11.15;;;6.22;;
69253;SDS011;56364;41.816;12.448;2023-10-08T15:49:03;9.38;;;4.60;;
69253;SDS011;56364;41.816;12.448;2023-10-08T15:51:30;10.23;;;4.85;;
69253;SDS011;56364;41.816;12.448;2023-10-08T15:53:59;12.18;;;5.72;;
69253;SDS011;56364;41.816;12.448;2023-10-08T15:56:29;12.35;;;5.07;;
69253;SDS011;56364;41.816;12.448;2023-10-08T15:58:55;13.20;;;6.38;;
69253;SDS011;56364;41.816;12.448;2023-10-08T16:01:24;11.25;;;5.07;;
69253;SDS011;56364;41.816;12.448;2023-10-08T16:03:59;12.65;;;5.72;;
69253;SDS011;56364;41.816;12.448;2023-10-08T16:06:39;10.32;;;3.88;;
69253;SDS011;56364;41.816;12.448;2023-10-08T16:16:55;12.75;;;4.82;;
69253;SDS011;56364;41.816;12.448;2023-10-08T16:19:25;13.85;;;5.93;;
69253;SDS011;56364;41.816;12.448;2023-10-08T16:21:52;16.25;;;6.18;;
69253;SDS011;56364;41.816;12.448;2023-10-08T16:24:22;12.88;;;6.35;;
69253;SDS011;56364;41.816;12.448;2023-10-08T16:26:51;11.90;;;5.75;;
69253;SDS011;56364;41.816;12.448;2023-10-08T16:29:20;11.63;;;5.50;;
69253;SDS011;56364;41.816;12.448;2023-10-08T16:31:46;13.55;;;5.88;;
69253;SDS011;56364;41.816;12.448;2023-10-08T16:34:15;12.48;;;5.95;;
69253;SDS011;56364;41.816;12.448;2023-10-08T16:36:42;11.48;;;5.28;;
69253;SDS011;56364;41.816;12.448;2023-10-08T16:39:11;15.20;;;6.68;;
69253;SDS011;56364;41.816;12.448;2023-10-08T16:57:35;15.50;;;6.63;;
69253;SDS011;56364;41.816;12.448;2023-10-08T17:03:13;18.67;;;6.20;;
69253;SDS011;56364;41.816;12.448;2023-10-08T17:05:43;15.98;;;6.20;;
69253;SDS011;56364;41.816;12.448;2023-10-08T17:08:10;13.77;;;6.63;;
69253;SDS011;56364;41.816;12.448;2023-10-08T17:10:38;17.13;;;7.20;;
69253;SDS011;56364;41.816;12.448;2023-10-08T17:13:05;14.50;;;5.57;;
69253;SDS011;56364;41.816;12.448;2023-10-08T17:15:33;16.60;;;6.70;;
69253;SDS011;56364;41.816;12.448;2023-10-08T17:18:21;20.48;;;7.38;;
69253;SDS011;56364;41.816;12.448;2023-10-08T17:24:00;16.15;;;6.45;;
69253;SDS011;56364;41.816;12.448;2023-10-08T17:26:31;13.35;;;7.07;;
69253;SDS011;56364;41.816;12.448;2023-10-08T17:28:57;16.38;;;6.70;;
69253;SDS011;56364;41.816;12.448;2023-10-08T17:31:23;20.42;;;7.43;;
69253;SDS011;56364;41.816;12.448;2023-10-08T17:33:49;16.67;;;7.60;;
69253;SDS011;56364;41.816;12.448;2023-10-08T17:36:15;16.35;;;7.25;;
69253;SDS011;56364;41.816;12.448;2023-10-08T17:38:41;18.20;;;7.65;;
69253;SDS011;56364;41.816;12.448;2023-10-08T17:41:07;18.27;;;7.25;;
69253;SDS011;56364;41.816;12.448;2023-10-08T17:43:34;17.55;;;7.53;;
69253;SDS011;56364;41.816;12.448;2023-10-08T17:46:00;15.05;;;7.10;;
69253;SDS011;56364;41.816;12.448;2023-10-08T17:48:26;17.90;;;7.97;;